Time;durP1;ratioP1;P1;durP2;ratioP2;P2;SDS_P1;SDS_P2;PMS_P1;PMS_P2;Temp;Humidity;BMP_temperature;BMP_pressure;BME280_temperature;BME280_humidity;BME280_pressure;Samples;Min_cycle;Max_cycle;Signal;HPM_P1;HPM_P2
2023/07/28 00:00:08;;;;;;;3.42;2.70;;;;;;;18.70;48.36;99483.88;5059918;28;20661;-70
2023/07/28 00:02:36;;;;;;;5.03;2.90;;;;;;;18.72;48.44;99485.53;5066323;28;20734;-70
2023/07/28 00:05:05;;;;;;;3.90;2.58;;;;;;;18.75;48.43;99487.97;5064860;28;20607;-68
2023/07/28 00:07:36;;;;;;;3.63;2.53;;;;;;;18.76;48.31;99487.03;5062363;28;20206;-70
2023/07/28 00:10:04;;;;;;;4.47;2.63;;;;;;;18.77;48.18;99480.88;5065277;28;20276;-73
2023/07/28 00:12:32;;;;;;;3.25;2.45;;;;;;;18.77;48.26;99482.66;5068176;28;20573;-71
2023/07/28 00:15:00;;;;;;;2.90;2.55;;;;;;;18.77;48.19;99480.88;5057768;28;20209;-69
2023/07/28 00:17:28;;;;;;;4.22;2.50;;;;;;;18.76;48.29;99484.44;5060429;28;20209;-71
2023/07/28 00:19:56;;;;;;;4.03;2.58;;;;;;;18.75;48.43;99477.53;5057972;28;20267;-69
2023/07/28 00:22:24;;;;;;;3.30;2.55;;;;;;;18.74;48.39;99481.09;5070405;28;20210;-71
2023/07/28 00:24:53;;;;;;;3.58;2.42;;;;;;;18.71;48.64;99476.03;5061622;28;20217;-69
2023/07/28 00:27:21;;;;;;;3.25;2.30;;;;;;;18.71;48.74;99460.38;5069241;28;20197;-71
2023/07/28 00:29:50;;;;;;;6.15;2.50;;;;;;;18.71;48.41;99467.34;5065900;28;20206;-70
2023/07/28 00:32:18;;;;;;;2.85;2.33;;;;;;;18.71;48.32;99469.97;5059159;28;20232;-71
2023/07/28 00:34:47;;;;;;;4.95;2.22;;;;;;;18.72;48.07;99463.81;5056722;28;20245;-71
2023/07/28 00:37:15;;;;;;;4.97;2.20;;;;;;;18.72;48.35;99467.25;5068269;28;20660;-70
2023/07/28 00:39:43;;;;;;;3.08;2.47;;;;;;;18.72;48.56;99471.63;5067700;28;20285;-70
2023/07/28 00:42:12;;;;;;;3.00;2.38;;;;;;;18.73;48.52;99470.69;5064968;28;20640;-69
2023/07/28 00:44:40;;;;;;;2.95;2.55;;;;;;;18.71;48.63;99468.19;5066817;28;20229;-70
2023/07/28 00:47:08;;;;;;;3.28;2.60;;;;;;;18.73;48.51;99463.72;5067197;28;20208;-71
2023/07/28 00:49:37;;;;;;;3.40;2.40;;;;;;;18.71;48.47;99455.13;5060969;28;20296;-71
2023/07/28 00:52:06;;;;;;;2.85;2.50;;;;;;;18.71;48.88;99454.31;5056599;28;20205;-71
2023/07/28 00:54:35;;;;;;;2.25;1.98;;;;;;;18.69;48.77;99451.72;5067324;28;20201;-71
2023/07/28 00:57:04;;;;;;;2.83;2.47;;;;;;;18.68;49.02;99444.84;5069507;28;20675;-70
2023/07/28 00:59:34;;;;;;;4.32;2.30;;;;;;;18.67;49.13;99450.13;5060102;28;20205;-71
2023/07/28 01:02:02;;;;;;;3.38;2.20;;;;;;;18.69;49.32;99445.66;5067631;28;20334;-70
2023/07/28 01:04:30;;;;;;;2.40;2.20;;;;;;;18.70;49.38;99445.56;5059529;28;20253;-71
2023/07/28 01:07:05;;;;;;;3.33;2.35;;;;;;;18.68;49.25;99439.63;5061540;28;20220;-71
2023/07/28 01:09:42;;;;;;;2.45;2.25;;;;;;;18.68;49.26;99434.41;5069135;28;20205;-70
2023/07/28 01:12:10;;;;;;;2.47;2.17;;;;;;;18.68;49.40;99437.00;5061675;28;20232;-72
2023/07/28 01:14:39;;;;;;;3.38;2.50;;;;;;;18.68;49.23;99437.00;5068163;28;20204;-73
2023/07/28 01:17:07;;;;;;;2.88;2.10;;;;;;;18.67;49.70;99422.28;5066272;28;20209;-71
2023/07/28 01:19:35;;;;;;;3.55;2.58;;;;;;;18.65;49.69;99431.94;5066557;28;20266;-70
2023/07/28 01:22:23;;;;;;;3.45;2.33;;;;;;;18.62;49.76;99424.28;5067450;28;20205;-72
2023/07/28 01:25:01;;;;;;;2.92;2.63;;;;;;;18.58;49.82;99420.16;5064755;28;20706;-70
2023/07/28 01:27:34;;;;;;;3.25;2.65;;;;;;;18.54;50.04;99423.88;5087943;22;20645;-79
2023/07/28 01:30:03;;;;;;;4.13;2.33;;;;;;;18.53;49.89;99416.97;5084319;22;20209;-66
2023/07/28 01:32:31;;;;;;;3.00;2.50;;;;;;;18.52;49.72;99407.44;5083016;22;20240;-65
2023/07/28 01:35:01;;;;;;;2.80;2.50;;;;;;;18.52;50.00;99407.44;5067119;28;20209;-64
2023/07/28 01:37:29;;;;;;;2.33;2.13;;;;;;;18.50;50.01;99398.88;5070447;28;20206;-65
2023/07/28 01:39:58;;;;;;;3.65;2.40;;;;;;;18.49;50.10;99402.41;5072599;28;20212;-66
2023/07/28 01:42:26;;;;;;;2.60;2.40;;;;;;;18.50;50.12;99402.31;5071150;28;20661;-66
2023/07/28 01:44:55;;;;;;;2.80;2.50;;;;;;;18.49;50.16;99402.41;5074285;28;20764;-65
2023/07/28 01:47:25;;;;;;;3.17;2.88;;;;;;;18.47;50.39;99394.66;5073474;28;20296;-64
2023/07/28 01:49:53;;;;;;;3.35;2.20;;;;;;;18.51;50.67;99400.53;5063255;28;20712;-64
2023/07/28 01:52:22;;;;;;;6.32;3.03;;;;;;;18.48;50.52;99390.28;5071565;28;20198;-65
2023/07/28 01:54:52;;;;;;;2.90;2.60;;;;;;;18.49;50.88;99397.19;5070689;28;20205;-63
2023/07/28 01:57:21;;;;;;;3.35;2.30;;;;;;;18.48;50.83;99398.09;5065960;28;20217;-62
2023/07/28 01:59:49;;;;;;;6.07;2.75;;;;;;;18.47;51.22;99394.66;5068914;28;20773;-62
2023/07/28 02:02:18;;;;;;;2.63;2.40;;;;;;;18.47;51.39;99399.03;5070865;28;20205;-63
2023/07/28 02:04:46;;;;;;;2.65;2.45;;;;;;;18.44;51.60;99393.97;5063490;28;20217;-64
2023/07/28 02:07:14;;;;;;;3.55;2.60;;;;;;;18.40;51.84;99397.69;5064722;28;20201;-62
2023/07/28 02:09:42;;;;;;;3.05;2.72;;;;;;;18.39;52.04;99396.00;5060701;28;20536;-63
2023/07/28 02:12:10;;;;;;;4.63;2.55;;;;;;;18.37;52.14;99401.28;5067449;28;20202;-64
2023/07/28 02:14:38;;;;;;;5.03;2.50;;;;;;;18.36;52.10;99397.00;5071701;28;20211;-64
2023/07/28 02:17:06;;;;;;;3.78;2.80;;;;;;;18.31;52.12;99397.25;5067076;28;20209;-64
2023/07/28 02:19:36;;;;;;;3.05;2.75;;;;;;;18.27;52.33;99400.97;5070029;28;20216;-64
2023/07/28 02:22:05;;;;;;;3.00;2.70;;;;;;;18.26;52.21;99394.06;5070432;28;20224;-64
2023/07/28 02:24:35;;;;;;;3.67;2.63;;;;;;;18.20;52.30;99388.31;5061837;28;20221;-64
2023/07/28 02:27:03;;;;;;;5.18;2.60;;;;;;;18.19;52.73;99391.84;5065844;28;20205;-62
2023/07/28 02:29:31;;;;;;;3.75;2.67;;;;;;;18.19;52.85;99395.31;5070768;28;20614;-63
2023/07/28 02:31:59;;;;;;;3.70;2.75;;;;;;;18.17;52.99;99388.50;5068905;28;20607;-65
2023/07/28 02:34:27;;;;;;;3.55;2.85;;;;;;;18.16;53.33;99387.66;5070146;28;20701;-64
2023/07/28 02:36:58;;;;;;;3.15;2.85;;;;;;;18.16;53.11;99395.47;5066687;28;20208;-64
2023/07/28 02:39:26;;;;;;;5.70;2.22;;;;;;;18.14;53.50;99389.47;5067532;28;20650;-63
2023/07/28 02:41:54;;;;;;;5.75;2.78;;;;;;;18.05;53.49;99387.38;5069900;28;20198;-64
2023/07/28 02:44:22;;;;;;;5.20;2.65;;;;;;;17.94;54.29;99390.53;5069140;28;20765;-64
2023/07/28 02:46:50;;;;;;;4.63;2.95;;;;;;;17.89;54.74;99386.47;5065340;28;20201;-65
2023/07/28 02:49:18;;;;;;;4.65;2.92;;;;;;;17.90;55.30;99398.63;5070974;28;20240;-65
2023/07/28 02:51:46;;;;;;;2.80;2.60;;;;;;;17.87;55.32;99397.00;5070186;28;20201;-65
2023/07/28 02:54:15;;;;;;;5.63;2.97;;;;;;;17.90;56.04;99398.63;5071111;28;20664;-65
2023/07/28 02:56:44;;;;;;;3.85;2.95;;;;;;;17.92;56.40;99391.53;5069143;28;20205;-65
2023/07/28 02:59:12;;;;;;;3.58;3.00;;;;;;;17.92;56.79;99388.94;5067317;28;20748;-65
2023/07/28 03:01:40;;;;;;;3.83;2.80;;;;;;;17.88;56.68;99396.06;5067558;28;20300;-64
2023/07/28 03:04:08;;;;;;;3.13;2.83;;;;;;;17.83;56.60;99375.47;5064818;28;20746;-64
2023/07/28 03:06:36;;;;;;;3.55;3.15;;;;;;;17.81;56.73;99372.09;5062181;28;20264;-64
2023/07/28 03:09:04;;;;;;;3.15;2.80;;;;;;;17.75;56.96;99369.81;5069687;28;20297;-64
2023/07/28 03:11:34;;;;;;;3.30;3.00;;;;;;;17.83;56.95;99378.06;5070747;28;20284;-66
2023/07/28 03:14:02;;;;;;;3.78;3.03;;;;;;;17.84;56.83;99381.50;5066850;28;20202;-63
2023/07/28 03:16:30;;;;;;;3.92;2.97;;;;;;;17.86;57.10;99377.91;5063369;28;20555;-63
2023/07/28 03:18:58;;;;;;;3.90;2.85;;;;;;;17.85;56.99;99376.22;5063137;28;20285;-65
2023/07/28 03:21:26;;;;;;;6.13;3.15;;;;;;;17.86;57.00;99367.50;5066040;28;20202;-66
2023/07/28 03:23:54;;;;;;;3.53;3.22;;;;;;;17.88;56.79;99363.97;5069457;28;20201;-65
2023/07/28 03:26:22;;;;;;;4.75;3.28;;;;;;;17.84;56.75;99353.69;5066090;28;20234;-66
2023/07/28 03:28:51;;;;;;;3.15;2.85;;;;;;;17.86;56.79;99353.63;5062904;28;20205;-67
2023/07/28 03:31:19;;;;;;;3.00;2.70;;;;;;;17.85;56.61;99355.34;5060234;28;20236;-66
2023/07/28 03:33:47;;;;;;;4.32;3.03;;;;;;;17.88;56.43;99358.75;5066254;28;20208;-66
2023/07/28 03:36:15;;;;;;;3.42;3.13;;;;;;;17.89;56.21;99353.44;5069579;28;20201;-65
2023/07/28 03:38:43;;;;;;;3.83;2.88;;;;;;;17.89;56.54;99356.03;5065421;28;20209;-66
2023/07/28 03:41:11;;;;;;;3.45;2.83;;;;;;;17.88;56.61;99354.38;5057362;28;20209;-66
2023/07/28 03:43:39;;;;;;;4.97;2.97;;;;;;;17.91;56.33;99353.38;5067138;28;20212;-65
2023/07/28 03:46:08;;;;;;;3.85;3.00;;;;;;;17.94;56.03;99353.22;5065899;28;20210;-64
2023/07/28 03:48:36;;;;;;;3.25;2.92;;;;;;;17.92;55.76;99345.47;5067835;28;20197;-65
2023/07/28 03:51:04;;;;;;;3.20;2.80;;;;;;;17.94;55.78;99354.06;5068391;28;20625;-65
2023/07/28 03:53:34;;;;;;;6.20;3.13;;;;;;;17.99;55.69;99354.63;5059343;28;20198;-66
2023/07/28 03:56:03;;;;;;;5.85;3.28;;;;;;;17.99;56.03;99351.19;5066724;28;20201;-65
2023/07/28 03:58:31;;;;;;;6.28;3.58;;;;;;;18.02;55.99;99353.66;5068492;28;20208;-64
2023/07/28 04:00:59;;;;;;;4.13;3.08;;;;;;;18.01;55.84;99350.19;5068945;28;20236;-66
2023/07/28 04:03:29;;;;;;;4.57;3.17;;;;;;;18.03;55.92;99348.34;5066381;28;20621;-65
2023/07/28 04:05:57;;;;;;;3.70;3.30;;;;;;;18.03;56.13;99348.34;5058280;28;20283;-66
2023/07/28 04:08:25;;;;;;;4.30;2.65;;;;;;;18.03;56.02;99348.34;5067484;28;20613;-65
2023/07/28 04:10:53;;;;;;;3.67;2.97;;;;;;;18.02;56.18;99343.22;5060747;28;20259;-66
2023/07/28 04:13:20;;;;;;;3.25;2.88;;;;;;;18.03;56.32;99343.13;5066196;28;20212;-67
2023/07/28 04:15:48;;;;;;;4.93;3.42;;;;;;;18.12;56.13;99340.97;5066400;28;20225;-65
2023/07/28 04:18:17;;;;;;;3.42;3.05;;;;;;;18.13;55.81;99338.28;5059083;28;20232;-66
2023/07/28 04:20:47;;;;;;;4.18;3.05;;;;;;;18.14;55.66;99344.31;5064657;28;20287;-65
2023/07/28 04:23:15;;;;;;;3.30;3.00;;;;;;;18.18;55.96;99341.47;5060909;28;20549;-65
2023/07/28 04:25:43;;;;;;;3.78;3.42;;;;;;;18.24;55.79;99335.09;5068978;28;20217;-66
2023/07/28 04:28:11;;;;;;;4.50;3.35;;;;;;;18.27;55.45;99338.38;5064928;28;20342;-66
2023/07/28 04:30:39;;;;;;;4.45;3.15;;;;;;;18.28;55.56;99342.66;5069572;28;20305;-70
2023/07/28 04:33:07;;;;;;;4.10;2.92;;;;;;;18.27;54.97;99329.69;5067646;28;20731;-65
2023/07/28 04:35:35;;;;;;;6.43;3.53;;;;;;;18.25;55.67;99337.59;5066253;28;20240;-67
2023/07/28 04:38:06;;;;;;;3.60;2.83;;;;;;;18.25;55.41;99328.94;5062546;28;20193;-66
2023/07/28 04:40:35;;;;;;;4.05;2.95;;;;;;;18.24;55.46;99325.50;5068920;28;20292;-67
2023/07/28 04:43:03;;;;;;;4.38;2.90;;;;;;;18.17;55.22;99318.91;5066609;28;20209;-66
2023/07/28 04:45:33;;;;;;;4.30;3.42;;;;;;;18.13;55.35;99322.63;5064788;28;20240;-65
2023/07/28 04:48:01;;;;;;;6.45;2.92;;;;;;;18.11;55.95;99316.63;5069534;28;20216;-65
2023/07/28 04:50:29;;;;;;;4.10;3.10;;;;;;;18.10;55.87;99314.97;5064333;28;20884;-64
2023/07/28 04:52:57;;;;;;;4.45;3.22;;;;;;;18.12;56.51;99314.91;5067723;28;20209;-64
2023/07/28 04:55:27;;;;;;;4.55;3.70;;;;;;;18.15;56.52;99307.72;5064046;28;21131;-64
2023/07/28 04:57:56;;;;;;;6.20;3.22;;;;;;;18.16;56.57;99312.03;5069449;28;20292;-65
2023/07/28 05:00:24;;;;;;;3.63;3.30;;;;;;;18.14;56.58;99303.44;5062780;28;20193;-63
2023/07/28 05:02:52;;;;;;;4.40;3.30;;;;;;;18.17;56.62;99310.25;5060481;28;20189;-64
2023/07/28 05:05:20;;;;;;;3.70;3.10;;;;;;;18.15;56.79;99307.72;5066825;28;20235;-62
2023/07/28 05:07:49;;;;;;;3.47;3.10;;;;;;;18.17;56.46;99308.50;5072638;28;20229;-62
2023/07/28 05:10:17;;;;;;;4.03;3.00;;;;;;;18.20;56.71;99303.13;5073853;28;20595;-63
2023/07/28 05:12:46;;;;;;;4.00;2.97;;;;;;;18.24;56.80;99303.78;5074548;28;20209;-63
2023/07/28 05:15:16;;;;;;;5.93;3.30;;;;;;;18.32;56.67;99297.22;5065837;28;20213;-64
2023/07/28 05:17:44;;;;;;;6.38;2.55;;;;;;;18.39;56.51;99307.31;5071622;28;20689;-64
2023/07/28 05:20:13;;;;;;;2.97;2.67;;;;;;;18.43;56.34;99303.59;5072984;28;20205;-63
2023/07/28 05:22:41;;;;;;;4.22;3.15;;;;;;;18.42;56.41;99294.94;5071169;28;20210;-63
2023/07/28 05:25:09;;;;;;;4.68;3.28;;;;;;;18.40;56.64;99299.41;5067207;28;20224;-61
2023/07/28 05:27:37;;;;;;;4.90;2.95;;;;;;;18.38;56.68;99297.81;5069769;28;20214;-62
2023/07/28 05:30:08;;;;;;;5.13;3.28;;;;;;;18.39;56.71;99296.88;5068007;28;20244;-64
2023/07/28 05:32:36;;;;;;;7.18;3.25;;;;;;;18.38;56.92;99293.44;5069624;28;20809;-63
2023/07/28 05:35:06;;;;;;;4.60;3.30;;;;;;;18.44;56.58;99289.63;5061939;28;20686;-62
2023/07/28 05:37:34;;;;;;;4.35;3.17;;;;;;;18.51;56.59;99290.97;5065541;28;20225;-65
2023/07/28 05:40:03;;;;;;;4.55;3.28;;;;;;;18.56;56.62;99299.41;5064256;28;20206;-66
2023/07/28 05:42:31;;;;;;;8.00;4.57;;;;;;;18.56;56.34;99287.19;5061922;28;20218;-64
2023/07/28 05:45:00;;;;;;;3.75;3.40;;;;;;;18.57;56.22;99290.63;5060983;28;20217;-68
2023/07/28 05:47:29;;;;;;;4.85;3.30;;;;;;;18.59;55.92;99292.25;5067286;28;20214;-65
2023/07/28 05:49:57;;;;;;;5.07;2.90;;;;;;;18.57;56.23;99291.47;5063525;28;20556;-66
2023/07/28 05:52:25;;;;;;;7.15;3.50;;;;;;;18.61;56.27;99296.53;5061746;28;20665;-65
2023/07/28 05:54:54;;;;;;;6.97;3.10;;;;;;;18.60;56.27;99290.47;5066963;28;20293;-65
2023/07/28 05:57:22;;;;;;;10.30;3.05;;;;;;;18.64;56.41;99297.19;5063202;28;20217;-66
2023/07/28 05:59:50;;;;;;;8.55;3.00;;;;;;;18.67;56.42;99303.97;5058536;28;20648;-65
2023/07/28 06:02:20;;;;;;;4.43;3.28;;;;;;;18.71;56.19;99301.16;5060550;28;20205;-65
2023/07/28 06:04:52;;;;;;;3.58;2.70;;;;;;;18.79;55.85;99298.94;5065315;28;20655;-66
2023/07/28 06:07:20;;;;;;;5.25;3.15;;;;;;;18.89;55.59;99301.03;5066349;28;20224;-64
2023/07/28 06:09:48;;;;;;;3.40;3.00;;;;;;;18.98;55.31;99303.94;5062131;28;20201;-65
2023/07/28 06:12:16;;;;;;;6.88;2.83;;;;;;;19.03;55.16;99295.84;5062715;28;20792;-65
2023/07/28 06:14:44;;;;;;;5.93;3.10;;;;;;;19.06;55.18;99298.28;5069266;28;20631;-65
2023/07/28 06:17:12;;;;;;;5.60;2.80;;;;;;;19.04;54.45;99294.94;5070811;28;20636;-65
2023/07/28 06:19:40;;;;;;;5.63;3.50;;;;;;;18.94;54.86;99302.44;5072860;28;20247;-65
2023/07/28 06:22:09;;;;;;;5.63;2.78;;;;;;;18.92;55.19;99295.63;5070458;28;20266;-65
2023/07/28 06:24:38;;;;;;;8.00;3.00;;;;;;;18.95;55.24;99290.22;5072467;28;20205;-65
2023/07/28 06:27:08;;;;;;;7.10;3.17;;;;;;;18.99;55.20;99294.34;5066194;28;20630;-65
2023/07/28 06:29:36;;;;;;;3.90;2.97;;;;;;;19.01;55.28;99300.34;5066637;28;20614;-64
2023/07/28 06:32:05;;;;;;;6.38;2.90;;;;;;;18.97;54.99;99296.22;5072348;28;20279;-65
2023/07/28 06:34:33;;;;;;;3.67;2.53;;;;;;;18.91;54.92;99297.41;5071441;28;20201;-65
2023/07/28 06:37:02;;;;;;;3.72;2.60;;;;;;;18.86;55.13;99303.84;5062467;28;20540;-64
2023/07/28 06:39:31;;;;;;;4.32;3.15;;;;;;;18.73;55.62;99301.91;5063850;28;20213;-66
2023/07/28 06:41:59;;;;;;;3.90;2.95;;;;;;;18.70;56.00;99302.03;5061626;28;20303;-64
2023/07/28 06:44:27;;;;;;;6.53;2.72;;;;;;;18.71;56.27;99295.13;5063033;28;20645;-66
2023/07/28 06:46:55;;;;;;;3.53;2.78;;;;;;;18.76;56.17;99300.91;5064450;28;20771;-65
2023/07/28 06:49:23;;;;;;;6.38;3.42;;;;;;;18.81;56.05;99302.34;5066765;28;20648;-65
2023/07/28 06:51:51;;;;;;;3.78;3.03;;;;;;;18.90;56.05;99298.34;5061328;28;20216;-65
2023/07/28 06:54:19;;;;;;;7.07;3.38;;;;;;;18.99;55.70;99286.50;5059829;28;20198;-65
2023/07/28 06:56:48;;;;;;;3.30;2.60;;;;;;;19.03;55.40;99283.63;5063655;28;20209;-65
2023/07/28 06:59:17;;;;;;;3.92;3.00;;;;;;;19.08;55.33;99287.75;5062128;28;20205;-65
2023/07/28 07:01:49;;;;;;;3.28;2.50;;;;;;;19.06;55.23;99283.44;5065038;28;20259;-65
2023/07/28 07:04:17;;;;;;;3.88;3.10;;;;;;;18.99;55.57;99281.28;5065463;28;20651;-66
2023/07/28 07:06:46;;;;;;;4.68;2.45;;;;;;;18.83;56.42;99292.63;5063502;28;20212;-66
2023/07/28 07:09:14;;;;;;;3.80;2.55;;;;;;;18.65;57.65;99291.03;5061364;28;20216;-65
2023/07/28 07:11:42;;;;;;;4.50;3.03;;;;;;;18.50;59.04;99304.94;5061873;28;20198;-66
2023/07/28 07:14:12;;;;;;;3.63;2.63;;;;;;;18.35;60.70;99301.44;5057765;28;20202;-69
2023/07/28 07:16:40;;;;;;;4.13;3.00;;;;;;;18.18;61.87;99297.13;5061602;28;20565;-66
2023/07/28 07:19:08;;;;;;;5.97;3.20;;;;;;;18.03;64.82;99313.59;5060615;28;20542;-67
2023/07/28 07:21:36;;;;;;;4.00;3.20;;;;;;;17.80;66.12;99312.25;5060487;28;20205;-68
2023/07/28 07:24:06;;;;;;;4.53;3.15;;;;;;;17.59;66.58;99317.59;5062765;28;20201;-68
2023/07/28 07:26:34;;;;;;;3.75;3.20;;;;;;;17.45;68.10;99312.25;5063541;28;20258;-67
2023/07/28 07:29:02;;;;;;;3.88;3.20;;;;;;;17.35;68.81;99321.50;5060487;28;20237;-66
2023/07/28 07:31:32;;;;;;;5.80;3.40;;;;;;;17.32;69.06;99317.28;5063147;28;20209;-65
2023/07/28 07:34:00;;;;;;;4.82;3.30;;;;;;;17.31;69.83;99304.34;5060525;28;20205;-65
2023/07/28 07:36:28;;;;;;;6.40;3.08;;;;;;;17.26;70.03;99304.56;5063776;28;20213;-65
2023/07/28 07:38:56;;;;;;;6.10;3.65;;;;;;;17.33;70.68;99300.72;5060427;28;20205;-66
2023/07/28 07:41:24;;;;;;;5.80;3.28;;;;;;;17.39;70.54;99303.03;5062562;28;20714;-66
2023/07/28 07:43:54;;;;;;;5.03;3.65;;;;;;;17.48;70.53;99306.06;5063951;28;20201;-68
2023/07/28 07:46:22;;;;;;;4.90;3.42;;;;;;;17.52;70.37;99299.78;5055133;28;20213;-67
2023/07/28 07:48:51;;;;;;;5.90;3.45;;;;;;;17.59;70.13;99303.75;5063812;28;20667;-67
2023/07/28 07:51:19;;;;;;;7.53;4.00;;;;;;;17.58;70.41;99304.69;5069021;28;20713;-68
2023/07/28 07:53:47;;;;;;;5.00;4.05;;;;;;;17.62;70.78;99298.38;5064549;28;20648;-67
2023/07/28 07:56:15;;;;;;;4.55;4.13;;;;;;;17.72;70.71;99304.78;5069780;28;20216;-66
2023/07/28 07:58:43;;;;;;;9.60;3.83;;;;;;;17.79;70.78;99298.38;5069590;28;20225;-69
2023/07/28 08:01:11;;;;;;;3.85;3.42;;;;;;;17.87;70.21;99295.34;5069507;28;20627;-66
2023/07/28 08:03:40;;;;;;;9.05;3.55;;;;;;;17.89;69.53;99303.06;5069367;28;20304;-67
2023/07/28 08:06:11;;;;;;;6.18;3.75;;;;;;;17.85;70.02;99305.00;5061093;28;20212;-67
2023/07/28 08:08:39;;;;;;;3.75;3.22;;;;;;;17.74;70.00;99297.72;5068561;28;20239;-67
2023/07/28 08:11:11;;;;;;;7.53;4.00;;;;;;;17.74;70.47;99310.75;5062038;28;20216;-68
2023/07/28 08:13:39;;;;;;;5.22;4.00;;;;;;;17.79;70.86;99307.97;5070278;28;20208;-66
2023/07/28 08:16:07;;;;;;;6.03;3.92;;;;;;;17.84;70.82;99305.94;5061298;28;20626;-68
2023/07/28 08:18:35;;;;;;;4.95;3.40;;;;;;;17.88;70.77;99306.63;5067379;28;20655;-66
2023/07/28 08:21:03;;;;;;;4.35;3.60;;;;;;;17.90;71.29;99303.00;5067473;28;20197;-68
2023/07/28 08:23:33;;;;;;;5.20;3.53;;;;;;;17.94;71.35;99303.69;5070154;28;20208;-68
2023/07/28 08:26:00;;;;;;;4.20;3.45;;;;;;;17.98;71.35;99302.59;5063821;28;20211;-67
2023/07/28 08:28:29;;;;;;;4.90;3.78;;;;;;;18.04;71.35;99297.03;5065986;28;20218;-67
2023/07/28 08:30:57;;;;;;;4.43;3.72;;;;;;;18.14;71.10;99298.22;5067633;28;20201;-68
2023/07/28 08:33:26;;;;;;;5.20;3.53;;;;;;;18.23;70.86;99295.13;5063398;28;20249;-67
2023/07/28 08:35:54;;;;;;;3.58;3.25;;;;;;;18.45;70.96;99301.78;5067578;28;20288;-67
2023/07/28 08:38:22;;;;;;;3.80;3.50;;;;;;;18.69;70.29;99289.94;5063923;28;20205;-68
2023/07/28 08:40:51;;;;;;;6.13;3.65;;;;;;;18.89;69.04;99291.44;5068093;28;20569;-68
2023/07/28 08:43:19;;;;;;;4.43;4.03;;;;;;;19.06;68.08;99287.84;5063493;28;20205;-68
2023/07/28 08:45:47;;;;;;;4.72;3.70;;;;;;;19.13;67.23;99290.94;5068516;28;20201;-68
2023/07/28 08:48:15;;;;;;;5.03;3.88;;;;;;;19.02;67.43;99286.34;5068781;28;20816;-68
2023/07/28 08:50:43;;;;;;;4.53;3.78;;;;;;;18.87;68.00;99293.28;5069054;28;20201;-67
2023/07/28 08:53:11;;;;;;;3.63;3.33;;;;;;;18.80;68.84;99291.97;5064647;28;20208;-67
2023/07/28 08:55:39;;;;;;;4.93;3.70;;;;;;;18.64;68.47;99286.75;5065868;28;20208;-66
2023/07/28 08:58:19;;;;;;;5.40;3.83;;;;;;;18.61;69.59;99281.69;5067930;28;20205;-67
2023/07/28 09:00:49;;;;;;;7.05;4.07;;;;;;;18.59;69.41;99283.53;5061633;28;20281;-67
2023/07/28 09:03:18;;;;;;;7.43;3.63;;;;;;;18.58;69.37;99274.88;5064771;28;20296;-66
2023/07/28 09:05:47;;;;;;;5.30;3.70;;;;;;;18.59;69.75;99273.09;5065975;28;20284;-68
2023/07/28 09:08:15;;;;;;;5.72;3.33;;;;;;;18.61;69.71;99271.25;5067849;28;20283;-66
2023/07/28 09:10:45;;;;;;;4.72;3.85;;;;;;;18.64;69.80;99276.31;5065002;28;20580;-67
2023/07/28 09:13:14;;;;;;;7.32;3.95;;;;;;;18.64;69.79;99273.72;5062173;28;20212;-67
2023/07/28 09:15:46;;;;;;;5.20;3.80;;;;;;;18.68;69.81;99280.44;5068173;28;20210;-67
2023/07/28 09:18:17;;;;;;;5.38;4.03;;;;;;;18.71;69.67;99272.47;5063909;28;20201;-67
2023/07/28 09:20:46;;;;;;;6.82;4.05;;;;;;;18.79;69.74;99275.47;5065382;28;20210;-66
2023/07/28 09:23:16;;;;;;;5.53;3.75;;;;;;;18.87;69.75;99282.84;5068474;28;20213;-67
2023/07/28 09:25:44;;;;;;;4.82;3.90;;;;;;;18.90;69.04;99280.06;5065656;28;20547;-68
2023/07/28 09:28:12;;;;;;;5.22;3.42;;;;;;;18.85;69.34;99279.47;5064785;28;20223;-67
2023/07/28 09:30:49;;;;;;;5.68;4.00;;;;;;;18.85;69.63;99274.25;5069248;28;20655;-68
2023/07/28 09:33:31;;;;;;;5.47;3.88;;;;;;;18.87;69.60;99263.75;5068172;28;20710;-68
2023/07/28 09:36:08;;;;;;;4.50;3.90;;;;;;;18.89;69.32;99264.47;5068448;28;20577;-68
2023/07/28 09:38:39;;;;;;;6.88;3.85;;;;;;;18.89;69.27;99264.47;5056421;28;20299;-67
2023/07/28 09:41:10;;;;;;;4.13;3.72;;;;;;;18.92;69.66;99261.69;5062937;28;20221;-67
2023/07/28 09:43:39;;;;;;;4.55;3.60;;;;;;;19.01;69.94;99258.56;5063167;28;20209;-67
2023/07/28 09:46:10;;;;;;;6.70;4.05;;;;;;;19.13;69.95;99247.38;5066794;28;20675;-67
2023/07/28 09:48:40;;;;;;;5.25;3.88;;;;;;;19.16;69.14;99255.03;5069634;28;20800;-65
2023/07/28 09:51:12;;;;;;;5.68;3.90;;;;;;;19.22;69.31;99254.69;5065231;28;20642;-64
2023/07/28 09:53:47;;;;;;;5.05;4.00;;;;;;;19.21;69.34;99255.59;5069485;28;20197;-66
2023/07/28 09:56:17;;;;;;;5.65;4.20;;;;;;;19.10;69.65;99255.38;5072501;28;20657;-67
2023/07/28 09:58:51;;;;;;;6.13;3.85;;;;;;;19.06;70.12;99251.28;5070119;28;20262;-66
2023/07/28 10:01:21;;;;;;;4.65;4.07;;;;;;;19.00;70.13;99247.28;5070361;28;20668;-67
2023/07/28 10:03:50;;;;;;;5.28;3.95;;;;;;;18.98;70.06;99243.91;5072763;28;20197;-66
2023/07/28 10:06:19;;;;;;;5.28;4.18;;;;;;;18.97;69.99;99246.63;5068366;28;20193;-67
2023/07/28 10:08:48;;;;;;;5.22;3.70;;;;;;;18.98;69.92;99245.69;5061083;28;20228;-66
2023/07/28 10:11:16;;;;;;;6.05;4.00;;;;;;;19.00;70.11;99244.66;5070180;28;20206;-65
2023/07/28 10:13:46;;;;;;;5.20;3.65;;;;;;;18.99;69.91;99240.34;5070066;28;20286;-67
2023/07/28 10:16:15;;;;;;;4.38;3.55;;;;;;;18.98;69.59;99248.28;5066920;28;20277;-67
2023/07/28 10:18:53;;;;;;;4.47;3.45;;;;;;;19.01;69.80;99238.50;5062900;28;20248;-67
2023/07/28 10:21:22;;;;;;;5.70;4.25;;;;;;;19.12;69.71;99244.88;5069551;28;20660;-69
2023/07/28 10:23:58;;;;;;;4.57;3.60;;;;;;;19.21;69.43;99239.91;5071582;28;20193;-66
2023/07/28 10:26:36;;;;;;;5.18;3.97;;;;;;;19.35;68.81;99243.47;5068141;28;20205;-66
2023/07/28 10:29:12;;;;;;;5.00;4.25;;;;;;;19.44;68.64;99240.28;5061384;28;20684;-64
2023/07/28 10:31:51;;;;;;;6.65;3.70;;;;;;;19.46;68.17;99239.28;5069876;28;20729;-64
2023/07/28 10:34:24;;;;;;;4.13;3.72;;;;;;;19.41;67.87;99240.50;5071765;28;20220;-64
2023/07/28 10:36:59;;;;;;;4.25;3.85;;;;;;;19.33;68.23;99238.38;5073148;28;20197;-65
2023/07/28 10:39:28;;;;;;;3.97;3.58;;;;;;;19.26;68.79;99237.88;5062340;28;20291;-66
2023/07/28 10:42:03;;;;;;;4.68;4.13;;;;;;;19.27;68.90;99238.72;5071827;28;20205;-64
2023/07/28 10:44:47;;;;;;;5.68;4.53;;;;;;;19.29;68.94;99232.47;5070224;28;20205;-68
2023/07/28 10:47:15;;;;;;;7.50;4.25;;;;;;;19.29;68.63;99237.72;5070537;28;20246;-65
2023/07/28 10:49:53;;;;;;;4.82;4.07;;;;;;;19.31;68.74;99237.59;5069987;28;20699;-67
2023/07/28 10:52:24;;;;;;;5.20;4.70;;;;;;;19.36;68.88;99225.09;5064604;28;20303;-71
2023/07/28 10:54:56;;;;;;;4.95;4.32;;;;;;;19.40;68.77;99217.91;5067753;28;20289;-67
2023/07/28 10:57:33;;;;;;;5.05;4.53;;;;;;;19.57;68.75;99220.34;5062049;28;20196;-67
2023/07/28 11:00:01;;;;;;;4.38;3.97;;;;;;;19.78;68.36;99208.56;5069240;28;20201;-67
2023/07/28 11:02:29;;;;;;;7.68;4.47;;;;;;;19.93;67.20;99216.41;5071004;28;20205;-67
2023/07/28 11:04:59;;;;;;;3.90;3.60;;;;;;;20.00;66.90;99217.69;5069609;28;20637;-68
2023/07/28 11:07:27;;;;;;;4.95;3.80;;;;;;;19.94;66.47;99218.91;5070402;28;20276;-67
2023/07/28 11:09:55;;;;;;;5.00;3.72;;;;;;;19.85;67.11;99221.28;5066788;28;20241;-67
2023/07/28 11:12:24;;;;;;;4.75;3.38;;;;;;;19.71;67.09;99217.75;5068728;28;20201;-64
2023/07/28 11:14:54;;;;;;;4.85;3.72;;;;;;;19.66;67.86;99221.56;5070854;28;20209;-66
2023/07/28 11:17:22;;;;;;;5.93;4.00;;;;;;;19.62;67.62;99222.66;5068938;28;20201;-66
2023/07/28 11:19:50;;;;;;;4.82;3.97;;;;;;;19.54;68.04;99223.97;5065825;28;20201;-68
2023/07/28 11:22:20;;;;;;;5.50;4.32;;;;;;;19.50;68.29;99216.41;5068788;28;20296;-67
2023/07/28 11:24:52;;;;;;;6.95;3.67;;;;;;;19.58;67.98;99208.94;5070098;28;20233;-67
2023/07/28 11:27:20;;;;;;;3.92;3.47;;;;;;;19.82;67.82;99213.63;5065668;28;20247;-67
2023/07/28 11:29:48;;;;;;;6.60;3.70;;;;;;;20.07;67.04;99211.13;5070389;28;20217;-68
2023/07/28 11:32:17;;;;;;;3.47;3.17;;;;;;;20.53;66.44;99205.53;5068476;28;20650;-67
2023/07/28 11:34:45;;;;;;;4.32;3.67;;;;;;;20.96;64.70;99207.91;5069327;28;20591;-68
2023/07/28 11:37:14;;;;;;;4.20;3.75;;;;;;;21.23;63.76;99206.00;5067384;28;20288;-68
2023/07/28 11:39:43;;;;;;;4.20;3.20;;;;;;;21.47;62.69;99202.69;5064013;28;20590;-67
2023/07/28 11:42:12;;;;;;;3.63;2.88;;;;;;;21.79;61.46;99191.69;5067977;28;20559;-67